Point O Woods, New York
Current Conditions -  °F | °C
As of 9:53 AM on Friday 31 Oct 2014 (Local Time) from KFRG Reporting Station
Overcast Overcast  
Wind Chill: 51°   Ceiling: 4900
Heat Index: 51°   Visibility: 10mi
Dew Point: 39°   Wind: 9mph
Humidity: 63%   Direction: 50°NE
Pressure: 30"   Gusts: NA
Location:  40.7379°N, 73.2632°W
Report Text: KFRG 311353Z 05008KT 10SM OVC049 11/04 A3000 RMK AO2 SLP160 T01060039
Loading
Personal Weather Stations






























Interactive Weather Map
Tropical Storm Tracking
New forecast layout! Learn more

10-Day Weather Forecast

Advertisements
Track Severe Weather on mobile